Terminal Aerodrome Forecast
Issued by NWS

Current Version | Previous Version | Graphics & Text | Print | Product List | Glossary On
Versions: 1 2 3 4 5 6 7 8 9 10 11 12 13 14 15 16 17 18 19 20 21 22
000
FTUS41 KPBZ 312006 AAA
TAFHLG
TAF AMD
KHLG 312006Z 3120/0118 22008KT P6SM VCTS BKN035CB
      TEMPO 3120/3121 20015G30KT 1 1/2SM -TSRA
     FM312300 25005KT P6SM VCSH BKN035
     FM010300 28005KT P6SM BKN015
     FM010600 30005KT P6SM BKN007
     FM011600 32005KT P6SM BKN015=

USA.gov is the U.S. government's official web portal to all federal, state and local government web resources and services.